Dobbin, Texas
Current Conditions -  °F | °C
As of 1:53 PM on Friday 21 Nov 2014 (Local Time) from KCXO Reporting Station
Light Rain Light Rain  
Wind Chill: 64°   Ceiling: 700
Heat Index: 64°   Visibility: 6mi
Dew Point: 63°   Wind: 8mph
Humidity: 96%   Direction: 140°SE
Pressure: 30.11"   Gusts: NA
Location:  30.37°N, 95.78°W
Report Text: KCXO 211953Z 14007KT 6SM -RA BR OVC007 18/17 A3011 RMK AO2 SLP194 P0005 T01780172
Loading
Personal Weather Stations






























Interactive Weather Map New forecast layout! Learn more

10-Day Weather Forecast

Advertisements
Track Severe Weather on mobile